Time;durP1;ratioP1;P1;durP2;ratioP2;P2;SDS_P1;SDS_P2;PMS_P1;PMS_P2;Temp;Humidity;BMP_temperature;BMP_pressure;BME280_temperature;BME280_humidity;BME280_pressure;Samples;Min_cycle;Max_cycle;Signal;HPM_P1;HPM_P2
2021/07/13 00:00:23;;;;;;;15.63;12.67;;;17.90;99.90;;;;;;5077303;28;20337;-66
2021/07/13 00:02:52;;;;;;;17.07;12.87;;;17.90;99.90;;;;;;5077251;28;20334;-66
2021/07/13 00:05:21;;;;;;;18.43;14.33;;;17.90;99.90;;;;;;5078395;28;20215;-65
2021/07/13 00:07:51;;;;;;;15.47;13.37;;;17.80;99.90;;;;;;5077236;28;20204;-66
2021/07/13 00:10:22;;;;;;;17.90;12.67;;;17.80;99.90;;;;;;5080578;28;20367;-65
2021/07/13 00:12:52;;;;;;;16.50;13.37;;;17.80;99.90;;;;;;5076386;28;20189;-66
2021/07/13 00:15:23;;;;;;;17.77;12.93;;;17.70;99.90;;;;;;5078805;28;20206;-66
2021/07/13 00:17:51;;;;;;;17.63;13.30;;;17.70;99.90;;;;;;5073990;28;20447;-65
2021/07/13 00:20:21;;;;;;;17.97;12.93;;;17.60;99.90;;;;;;5077921;28;20224;-66
2021/07/13 00:22:49;;;;;;;17.20;14.30;;;17.60;99.90;;;;;;5079538;28;20183;-66
2021/07/13 00:25:20;;;;;;;16.67;12.23;;;17.50;99.90;;;;;;5078516;28;20180;-66
2021/07/13 00:27:48;;;;;;;13.63;10.93;;;17.50;99.90;;;;;;5079444;28;20177;-66
2021/07/13 00:30:18;;;;;;;14.37;12.67;;;17.40;99.90;;;;;;5076516;28;20188;-66
2021/07/13 00:32:47;;;;;;;16.67;14.07;;;17.40;99.90;;;;;;5078840;28;20389;-66
2021/07/13 00:35:16;;;;;;;21.63;15.20;;;17.30;99.90;;;;;;5077084;28;20192;-66
2021/07/13 00:37:46;;;;;;;21.47;13.60;;;17.30;99.90;;;;;;5078610;28;20222;-66
2021/07/13 00:40:17;;;;;;;17.10;13.27;;;17.20;99.90;;;;;;5078132;28;20212;-66
2021/07/13 00:42:50;;;;;;;18.97;13.60;;;17.20;99.90;;;;;;5073835;28;20189;-66
2021/07/13 00:45:19;;;;;;;16.83;13.27;;;17.10;99.90;;;;;;5075291;28;20185;-66
2021/07/13 00:47:49;;;;;;;17.60;15.10;;;17.00;99.90;;;;;;5079858;28;20306;-66
2021/07/13 00:50:19;;;;;;;16.47;13.43;;;17.00;99.90;;;;;;5077520;28;20413;-65
2021/07/13 00:52:48;;;;;;;19.77;16.13;;;17.00;99.90;;;;;;5078471;28;20184;-66
2021/07/13 00:55:17;;;;;;;21.40;16.73;;;17.10;99.90;;;;;;5076376;28;20187;-66
2021/07/13 00:57:46;;;;;;;22.03;17.17;;;17.10;99.90;;;;;;5079251;28;20176;-65
2021/07/13 01:00:18;;;;;;;20.03;15.37;;;17.20;99.90;;;;;;5078136;28;20243;-66
2021/07/13 01:02:49;;;;;;;24.77;16.17;;;17.10;99.90;;;;;;5076090;28;20187;-66
2021/07/13 01:05:21;;;;;;;20.47;15.10;;;17.10;99.90;;;;;;5076431;28;20199;-66
2021/07/13 01:07:59;;;;;;;22.73;17.17;;;17.00;99.90;;;;;;5080097;28;20456;-66
2021/07/13 01:10:37;;;;;;;22.83;15.97;;;17.00;99.90;;;;;;5074600;28;20210;-66
2021/07/13 01:13:12;;;;;;;27.53;19.67;;;16.90;99.90;;;;;;5078628;28;20333;-66
2021/07/13 01:15:48;;;;;;;32.73;22.53;;;16.90;99.90;;;;;;5074287;28;20176;-66
2021/07/13 01:18:22;;;;;;;37.87;24.67;;;16.90;99.90;;;;;;5064332;28;20483;-66
2021/07/13 01:21:22;;;;;;;42.00;27.27;;;16.90;99.90;;;;;;5077828;28;20235;-66
2021/07/13 01:24:31;;;;;;;45.50;29.07;;;17.00;99.90;;;;;;5071720;28;20188;-66
2021/07/13 01:27:16;;;;;;;39.33;27.87;;;17.00;99.90;;;;;;5072566;28;20305;-65
2021/07/13 01:29:48;;;;;;;43.63;28.47;;;16.90;99.90;;;;;;5075338;28;20208;-65
2021/07/13 01:32:23;;;;;;;44.80;28.17;;;16.90;99.90;;;;;;5075815;28;20187;-66
2021/07/13 01:34:59;;;;;;;44.53;28.73;;;16.90;99.90;;;;;;5072053;28;20195;-66
2021/07/13 01:37:30;;;;;;;43.17;27.13;;;16.90;99.90;;;;;;5075505;28;20184;-66
2021/07/13 01:40:00;;;;;;;45.40;30.03;;;16.80;99.90;;;;;;5079185;28;20484;-65
2021/07/13 01:42:30;;;;;;;50.30;32.83;;;16.80;99.90;;;;;;5077823;28;20180;-66
2021/07/13 01:45:01;;;;;;;48.20;31.20;;;16.80;99.90;;;;;;5070666;28;20203;-66
2021/07/13 01:47:30;;;;;;;46.77;31.50;;;16.80;99.90;;;;;;5076290;28;20212;-66
2021/07/13 01:50:00;;;;;;;47.33;30.97;;;16.80;99.90;;;;;;5078030;28;20433;-65
2021/07/13 01:52:29;;;;;;;43.70;29.47;;;16.80;99.90;;;;;;5077535;28;20452;-66
2021/07/13 01:54:58;;;;;;;44.50;29.03;;;16.80;99.90;;;;;;5077737;28;20475;-66
2021/07/13 01:57:28;;;;;;;49.17;31.37;;;16.70;99.90;;;;;;5074560;28;20374;-66
2021/07/13 01:59:59;;;;;;;46.53;32.10;;;16.70;99.90;;;;;;5073937;28;20223;-66
2021/07/13 02:02:30;;;;;;;48.77;32.27;;;16.70;99.90;;;;;;5076270;28;20185;-65
2021/07/13 02:05:00;;;;;;;45.17;28.53;;;16.70;99.90;;;;;;5076453;28;20178;-65
2021/07/13 02:07:31;;;;;;;46.40;30.03;;;16.70;99.90;;;;;;5073721;28;20480;-66
2021/07/13 02:10:00;;;;;;;47.30;30.07;;;16.60;99.90;;;;;;5089917;28;20180;-65
2021/07/13 02:12:28;;;;;;;50.10;31.13;;;16.60;99.90;;;;;;5075142;28;20437;-66
2021/07/13 02:15:01;;;;;;;53.23;31.53;;;16.60;99.90;;;;;;5077952;28;20200;-66
2021/07/13 02:17:31;;;;;;;44.23;30.00;;;16.70;99.90;;;;;;5076426;28;20418;-66
2021/07/13 02:20:00;;;;;;;51.97;32.73;;;16.70;99.90;;;;;;5073764;28;20205;-66
2021/07/13 02:22:29;;;;;;;53.97;35.30;;;16.70;99.90;;;;;;5077248;28;20233;-66
2021/07/13 02:24:57;;;;;;;56.00;36.30;;;16.80;99.90;;;;;;5077329;28;20325;-66
2021/07/13 02:27:30;;;;;;;49.50;32.47;;;16.80;99.90;;;;;;5076812;28;20283;-66
2021/07/13 02:30:05;;;;;;;51.67;33.03;;;16.80;99.90;;;;;;5070055;28;20201;-66
2021/07/13 02:32:41;;;;;;;50.73;31.90;;;16.80;99.90;;;;;;5073894;28;20473;-66
2021/07/13 02:35:12;;;;;;;44.33;29.90;;;16.80;99.90;;;;;;5076490;28;20216;-66
2021/07/13 02:37:42;;;;;;;47.27;29.67;;;16.80;99.90;;;;;;5074974;28;20442;-66
2021/07/13 02:40:13;;;;;;;42.57;29.00;;;16.90;99.90;;;;;;5075997;28;20727;-66
2021/07/13 02:42:45;;;;;;;53.70;32.60;;;16.90;99.90;;;;;;5071541;28;20296;-66
2021/07/13 02:45:17;;;;;;;58.83;37.17;;;16.90;99.90;;;;;;5071060;28;20475;-66
2021/07/13 02:47:46;;;;;;;52.13;34.13;;;16.90;99.90;;;;;;5077212;28;20469;-66
2021/07/13 02:50:17;;;;;;;53.30;34.23;;;16.90;99.90;;;;;;5078350;28;20523;-66
2021/07/13 02:52:48;;;;;;;62.40;38.67;;;17.00;99.90;;;;;;5075586;28;20198;-65
2021/07/13 02:55:18;;;;;;;64.60;38.93;;;16.90;99.90;;;;;;5076314;28;20227;-65
2021/07/13 02:57:48;;;;;;;67.07;41.73;;;17.00;99.90;;;;;;5076895;28;20235;-66
2021/07/13 03:00:20;;;;;;;66.83;40.50;;;17.00;99.90;;;;;;5073733;28;20236;-66
2021/07/13 03:02:50;;;;;;;67.13;41.33;;;17.00;99.90;;;;;;5071306;28;20187;-66
2021/07/13 03:05:21;;;;;;;80.00;43.17;;;17.00;99.90;;;;;;5078031;28;20444;-66
2021/07/13 03:07:51;;;;;;;77.27;42.60;;;16.90;99.90;;;;;;5078026;28;20373;-65
2021/07/13 03:10:21;;;;;;;110.13;50.77;;;17.00;99.90;;;;;;5077917;28;20188;-66
2021/07/13 03:12:50;;;;;;;127.70;55.70;;;16.90;99.90;;;;;;5075619;28;20185;-65
2021/07/13 03:15:22;;;;;;;146.33;56.47;;;17.00;99.90;;;;;;5077301;28;20184;-65
2021/07/13 03:17:52;;;;;;;146.23;58.53;;;17.00;99.90;;;;;;5076521;28;20182;-66
2021/07/13 03:20:21;;;;;;;154.47;58.40;;;17.00;99.90;;;;;;5080470;28;20334;-65
2021/07/13 03:22:50;;;;;;;141.70;58.57;;;17.00;99.90;;;;;;5078861;28;20232;-66
2021/07/13 03:25:24;;;;;;;138.90;57.80;;;17.10;99.90;;;;;;5080359;28;20227;-65
2021/07/13 03:27:53;;;;;;;137.07;57.40;;;17.10;99.90;;;;;;5080543;28;20263;-66
2021/07/13 03:30:24;;;;;;;135.03;58.33;;;17.00;99.90;;;;;;5078073;28;20239;-65
2021/07/13 03:32:53;;;;;;;140.77;57.97;;;17.10;99.90;;;;;;5078051;28;20233;-65
2021/07/13 03:35:22;;;;;;;168.30;61.87;;;17.00;99.90;;;;;;5075513;28;20177;-65
2021/07/13 03:37:52;;;;;;;179.33;61.90;;;17.10;99.90;;;;;;5076496;28;20226;-66
2021/07/13 03:40:23;;;;;;;175.40;63.30;;;17.00;99.90;;;;;;5079454;28;20395;-66
2021/07/13 03:42:54;;;;;;;179.33;63.53;;;17.00;99.90;;;;;;5077499;28;20186;-66
2021/07/13 03:45:28;;;;;;;160.30;60.53;;;17.00;99.90;;;;;;5079244;28;20435;-66
2021/07/13 03:47:59;;;;;;;180.40;65.43;;;17.00;99.90;;;;;;5071089;28;20515;-66
2021/07/13 03:50:31;;;;;;;166.27;61.27;;;17.00;99.90;;;;;;5078950;28;20181;-65
2021/07/13 03:53:00;;;;;;;170.90;61.87;;;17.00;99.90;;;;;;5079367;28;20487;-66
2021/07/13 03:55:28;;;;;;;166.23;65.63;;;17.00;99.90;;;;;;5077085;28;20362;-66
2021/07/13 03:57:56;;;;;;;150.13;60.27;;;17.00;99.90;;;;;;5077912;28;20187;-66
2021/07/13 04:00:28;;;;;;;176.57;66.67;;;17.00;99.90;;;;;;5077475;28;20197;-66
2021/07/13 04:02:56;;;;;;;176.43;65.73;;;17.00;99.90;;;;;;5077546;28;20254;-66
2021/07/13 04:05:25;;;;;;;179.77;65.43;;;17.00;99.90;;;;;;5076227;28;20249;-66
2021/07/13 04:07:53;;;;;;;185.77;66.50;;;17.10;99.90;;;;;;5078468;28;20192;-66
2021/07/13 04:10:22;;;;;;;171.03;64.60;;;17.00;99.90;;;;;;5076927;28;20180;-66
2021/07/13 04:12:51;;;;;;;166.07;61.93;;;17.00;99.90;;;;;;5077365;28;20185;-66
2021/07/13 04:15:20;;;;;;;187.47;65.93;;;17.00;99.90;;;;;;5079150;28;20431;-66
2021/07/13 04:17:50;;;;;;;180.53;67.03;;;17.00;99.90;;;;;;5079021;28;20201;-66
2021/07/13 04:20:19;;;;;;;173.30;65.67;;;17.10;99.90;;;;;;5081228;28;20221;-66
2021/07/13 04:22:49;;;;;;;183.27;68.43;;;17.10;99.90;;;;;;5072729;28;20183;-66
2021/07/13 04:25:17;;;;;;;176.23;63.97;;;17.10;99.90;;;;;;5081356;28;20176;-66
2021/07/13 04:27:46;;;;;;;168.67;63.77;;;17.10;99.90;;;;;;5075980;28;20203;-66
2021/07/13 04:30:15;;;;;;;183.27;65.87;;;17.10;99.90;;;;;;5076957;28;20176;-66
2021/07/13 04:32:43;;;;;;;177.93;71.10;;;17.10;99.90;;;;;;5079586;28;20241;-66
2021/07/13 04:35:14;;;;;;;166.10;65.40;;;17.10;99.90;;;;;;5078695;28;20181;-66
2021/07/13 04:37:42;;;;;;;184.30;71.00;;;17.10;99.90;;;;;;5078000;28;20184;-66
2021/07/13 04:40:12;;;;;;;181.33;69.27;;;17.10;99.90;;;;;;5078843;28;20185;-66
2021/07/13 04:42:41;;;;;;;186.73;67.83;;;17.20;99.90;;;;;;5075584;28;20414;-66
2021/07/13 04:45:11;;;;;;;171.47;66.57;;;17.20;99.90;;;;;;5076899;28;20200;-66
2021/07/13 04:47:39;;;;;;;170.57;65.00;;;17.20;99.90;;;;;;5077022;28;20548;-65
2021/07/13 04:50:09;;;;;;;184.97;71.13;;;17.20;99.90;;;;;;5075867;28;20254;-66
2021/07/13 04:52:39;;;;;;;191.43;71.60;;;17.20;99.90;;;;;;5074402;28;20185;-66
2021/07/13 04:55:09;;;;;;;171.37;66.07;;;17.20;99.90;;;;;;5078281;28;20193;-66
2021/07/13 04:57:37;;;;;;;206.47;72.90;;;17.20;99.90;;;;;;5076285;28;20188;-66
2021/07/13 05:00:07;;;;;;;188.87;67.47;;;17.20;99.90;;;;;;5077693;28;20291;-66
2021/07/13 05:02:35;;;;;;;198.23;68.93;;;17.20;99.90;;;;;;5075949;28;20206;-66
2021/07/13 05:05:04;;;;;;;211.10;68.80;;;17.30;99.90;;;;;;5079136;28;20182;-66
2021/07/13 05:07:33;;;;;;;213.90;72.60;;;17.30;99.90;;;;;;5077286;28;20202;-66
2021/07/13 05:10:09;;;;;;;195.43;68.33;;;17.30;99.90;;;;;;5078148;28;20188;-66
2021/07/13 05:12:37;;;;;;;233.97;73.53;;;17.30;99.90;;;;;;5078702;28;20189;-66
2021/07/13 05:15:07;;;;;;;218.27;72.47;;;17.30;99.90;;;;;;5074283;28;20179;-66
2021/07/13 05:17:38;;;;;;;217.13;72.57;;;17.30;99.90;;;;;;5077544;28;20176;-66
2021/07/13 05:20:08;;;;;;;205.03;66.20;;;17.30;99.90;;;;;;5077935;28;20185;-65
2021/07/13 05:22:37;;;;;;;212.63;70.77;;;17.30;99.90;;;;;;5077646;28;20440;-66
2021/07/13 05:25:09;;;;;;;212.27;71.83;;;17.40;99.90;;;;;;5070275;28;20384;-66
2021/07/13 05:27:39;;;;;;;216.43;68.97;;;17.40;99.90;;;;;;5078019;28;20199;-66
2021/07/13 05:30:09;;;;;;;210.83;68.70;;;17.40;99.90;;;;;;5076476;28;20185;-66
2021/07/13 05:32:38;;;;;;;203.47;68.03;;;17.40;99.90;;;;;;5077742;28;20370;-66
2021/07/13 05:35:08;;;;;;;184.20;66.50;;;17.40;99.90;;;;;;5077025;28;20460;-66
2021/07/13 05:37:36;;;;;;;196.10;67.30;;;17.40;99.90;;;;;;5077883;28;20375;-66
2021/07/13 05:40:06;;;;;;;201.93;69.30;;;17.50;99.90;;;;;;5075959;28;20184;-66
2021/07/13 05:42:37;;;;;;;168.10;62.10;;;17.50;99.90;;;;;;5074877;28;20345;-66
2021/07/13 05:45:06;;;;;;;176.77;64.30;;;17.50;99.90;;;;;;5078090;28;20194;-65
2021/07/13 05:47:35;;;;;;;179.83;62.90;;;17.60;99.90;;;;;;5077867;28;20183;-66
2021/07/13 05:50:05;;;;;;;169.43;59.00;;;17.60;99.90;;;;;;5074823;28;20207;-66
2021/07/13 05:52:33;;;;;;;146.20;52.30;;;17.60;99.90;;;;;;5078808;28;20442;-66
2021/07/13 05:55:01;;;;;;;166.87;61.73;;;17.60;99.90;;;;;;5073180;28;20203;-66
2021/07/13 05:57:30;;;;;;;150.57;59.00;;;17.70;99.90;;;;;;5074339;28;20428;-66
2021/07/13 05:59:59;;;;;;;157.23;61.33;;;17.70;99.90;;;;;;5073492;28;20448;-66
2021/07/13 06:02:29;;;;;;;137.20;52.97;;;17.70;99.90;;;;;;5055936;28;21345;-65
2021/07/13 06:04:57;;;;;;;148.67;58.57;;;17.80;99.90;;;;;;5076682;28;20333;-66
2021/07/13 06:07:25;;;;;;;137.53;55.47;;;17.80;99.90;;;;;;5077989;28;20193;-66
2021/07/13 06:09:54;;;;;;;127.80;53.37;;;17.90;99.90;;;;;;5077101;28;20190;-66
2021/07/13 06:12:22;;;;;;;146.10;58.70;;;17.90;99.90;;;;;;5079338;28;20185;-65
2021/07/13 06:14:51;;;;;;;139.90;54.23;;;17.90;99.90;;;;;;5059521;28;20191;-66
2021/07/13 06:17:24;;;;;;;139.37;56.03;;;18.00;99.90;;;;;;5073821;28;20302;-66
2021/07/13 06:19:53;;;;;;;133.70;56.60;;;18.00;99.90;;;;;;5069629;28;20448;-66
2021/07/13 06:22:22;;;;;;;126.93;52.37;;;18.00;99.90;;;;;;5077503;28;20212;-66
2021/07/13 06:24:50;;;;;;;143.37;59.47;;;18.10;99.90;;;;;;5076767;28;20181;-66
2021/07/13 06:27:18;;;;;;;146.63;58.27;;;18.20;99.90;;;;;;5078238;28;20386;-66
2021/07/13 06:29:47;;;;;;;138.50;58.67;;;18.20;99.90;;;;;;5071990;28;20527;-66
2021/07/13 06:32:15;;;;;;;131.87;55.63;;;18.30;99.90;;;;;;5076633;28;20206;-66
2021/07/13 06:34:45;;;;;;;128.17;54.67;;;18.50;99.90;;;;;;5077631;28;20184;-66
2021/07/13 06:37:13;;;;;;;134.17;54.37;;;18.60;99.90;;;;;;5076189;28;20206;-66
2021/07/13 06:39:42;;;;;;;124.40;53.53;;;18.70;99.90;;;;;;5070812;28;20191;-66
2021/07/13 06:42:12;;;;;;;122.33;52.17;;;18.80;99.90;;;;;;5074895;28;20218;-66
2021/07/13 06:44:40;;;;;;;111.40;50.80;;;18.80;99.90;;;;;;5078679;28;20191;-66
2021/07/13 06:47:10;;;;;;;121.80;52.07;;;18.80;99.90;;;;;;5076527;28;20200;-66
2021/07/13 06:49:40;;;;;;;124.07;53.53;;;18.80;99.90;;;;;;5078078;28;20191;-66
2021/07/13 06:52:10;;;;;;;128.07;54.53;;;18.80;99.90;;;;;;5077061;28;20318;-66
2021/07/13 06:54:38;;;;;;;125.47;53.40;;;18.80;99.90;;;;;;5078644;28;20207;-66
2021/07/13 06:57:07;;;;;;;132.20;53.33;;;18.90;99.90;;;;;;5078349;28;20191;-66
2021/07/13 06:59:35;;;;;;;131.23;55.00;;;18.90;99.90;;;;;;5079414;28;20184;-66
2021/07/13 07:02:04;;;;;;;125.33;54.47;;;19.00;99.90;;;;;;5070340;28;20460;-66
2021/07/13 07:04:32;;;;;;;136.13;55.23;;;19.10;99.90;;;;;;5077193;28;20184;-66
2021/07/13 07:07:01;;;;;;;133.00;57.03;;;19.10;99.90;;;;;;5078965;28;20227;-66
2021/07/13 07:09:30;;;;;;;128.90;57.20;;;19.20;99.90;;;;;;5078738;28;20464;-66
2021/07/13 07:11:59;;;;;;;130.20;53.73;;;19.20;99.90;;;;;;5082646;28;20200;-66
2021/07/13 07:14:28;;;;;;;138.20;55.37;;;19.30;99.90;;;;;;5079755;28;20176;-66
2021/07/13 07:16:56;;;;;;;132.63;53.50;;;19.40;99.90;;;;;;5077176;28;20344;-66
2021/07/13 07:19:24;;;;;;;125.60;54.90;;;19.40;99.90;;;;;;5078463;28;20188;-66
2021/07/13 07:21:53;;;;;;;121.10;53.60;;;19.40;99.90;;;;;;5073908;28;20177;-66
2021/07/13 07:24:21;;;;;;;122.07;54.00;;;19.50;99.90;;;;;;5077867;28;20259;-66
2021/07/13 07:26:51;;;;;;;120.87;53.97;;;19.60;99.90;;;;;;5080129;28;20421;-66
2021/07/13 07:29:20;;;;;;;112.03;52.07;;;19.80;99.90;;;;;;5075924;28;20188;-65
2021/07/13 07:31:50;;;;;;;108.93;49.00;;;19.90;99.90;;;;;;5073115;28;20180;-66
2021/07/13 07:34:20;;;;;;;114.97;52.27;;;20.00;99.90;;;;;;5077176;28;20270;-66
2021/07/13 07:36:51;;;;;;;107.13;49.67;;;20.10;99.90;;;;;;5073631;28;20354;-66
2021/07/13 07:39:19;;;;;;;107.83;51.07;;;20.30;99.90;;;;;;5077475;28;20195;-66
2021/07/13 07:41:48;;;;;;;102.77;49.40;;;20.30;99.90;;;;;;5079126;28;20214;-66
2021/07/13 07:44:18;;;;;;;105.90;50.70;;;20.40;99.90;;;;;;5074735;28;20548;-66
2021/07/13 07:46:47;;;;;;;104.00;51.77;;;20.30;99.90;;;;;;5071882;28;20185;-66
2021/07/13 07:49:16;;;;;;;109.23;50.70;;;20.20;99.90;;;;;;5075960;28;20185;-66
2021/07/13 07:51:44;;;;;;;113.57;52.47;;;20.20;99.90;;;;;;5074075;28;20184;-66
2021/07/13 07:54:13;;;;;;;107.67;51.00;;;20.10;99.90;;;;;;5071522;28;20405;-66
2021/07/13 07:56:42;;;;;;;114.17;51.30;;;20.10;99.90;;;;;;5080688;28;20172;-66
2021/07/13 07:59:10;;;;;;;112.63;51.93;;;20.00;99.90;;;;;;5074202;28;20237;-66
2021/07/13 08:01:40;;;;;;;116.03;52.37;;;20.00;99.90;;;;;;5073683;28;20321;-66
2021/07/13 08:04:08;;;;;;;103.30;50.83;;;20.00;99.90;;;;;;5078138;28;20269;-66
2021/07/13 08:06:37;;;;;;;107.87;51.23;;;20.00;99.90;;;;;;5072404;28;20516;-66
2021/07/13 08:09:07;;;;;;;106.10;51.03;;;20.10;99.90;;;;;;5075648;28;20209;-66
2021/07/13 08:11:36;;;;;;;102.37;50.43;;;20.20;99.90;;;;;;5075947;28;20185;-66
2021/07/13 08:14:05;;;;;;;105.40;51.60;;;20.30;99.90;;;;;;5075254;28;20631;-66
2021/07/13 08:16:35;;;;;;;104.60;51.37;;;20.40;99.90;;;;;;5074232;28;20181;-66
2021/07/13 08:19:06;;;;;;;106.87;51.03;;;20.40;99.90;;;;;;5077382;28;20176;-66
2021/07/13 08:21:37;;;;;;;107.00;50.57;;;20.50;99.90;;;;;;5073576;28;20411;-66
2021/07/13 08:24:06;;;;;;;108.07;51.83;;;20.60;99.90;;;;;;5068647;28;20422;-66
2021/07/13 08:26:34;;;;;;;105.70;52.47;;;20.60;99.90;;;;;;5076237;28;20172;-66
2021/07/13 08:29:03;;;;;;;104.43;51.90;;;20.60;99.90;;;;;;5080531;28;20191;-66
2021/07/13 08:31:31;;;;;;;101.90;51.93;;;20.60;99.90;;;;;;5077875;28;20187;-66
2021/07/13 08:34:00;;;;;;;100.70;51.37;;;20.60;99.90;;;;;;5080290;28;20204;-66
2021/07/13 08:36:29;;;;;;;101.47;52.00;;;20.50;99.90;;;;;;5078748;28;20188;-66
2021/07/13 08:38:58;;;;;;;104.13;52.23;;;20.50;99.90;;;;;;5078657;28;20187;-66
2021/07/13 08:41:30;;;;;;;93.33;50.77;;;20.50;99.90;;;;;;5078784;28;20334;-66
2021/07/13 08:44:00;;;;;;;98.73;51.03;;;20.60;99.90;;;;;;5081151;28;20208;-66
2021/07/13 08:46:29;;;;;;;99.80;50.27;;;20.50;99.90;;;;;;5077063;28;20207;-66
2021/07/13 08:48:57;;;;;;;95.27;49.57;;;20.60;99.90;;;;;;5077810;28;20255;-66
2021/07/13 08:51:26;;;;;;;99.13;51.33;;;20.70;99.90;;;;;;5079140;28;20199;-66
2021/07/13 08:53:56;;;;;;;96.70;50.50;;;20.70;99.90;;;;;;5080213;28;20180;-66
2021/07/13 08:56:24;;;;;;;96.83;51.77;;;20.70;99.90;;;;;;5078549;28;20211;-66
2021/07/13 08:58:53;;;;;;;97.40;50.97;;;20.80;99.90;;;;;;5074139;28;20329;-66
2021/07/13 09:01:21;;;;;;;92.43;48.63;;;20.80;99.90;;;;;;5076801;28;20192;-66
2021/07/13 09:03:55;;;;;;;95.07;50.03;;;20.90;99.90;;;;;;5078463;28;20249;-66
2021/07/13 09:06:24;;;;;;;88.77;48.23;;;21.00;99.90;;;;;;5077650;28;20193;-66
2021/07/13 09:08:53;;;;;;;87.77;48.70;;;20.90;99.90;;;;;;5076347;28;20230;-66
2021/07/13 09:11:23;;;;;;;84.63;47.43;;;20.90;99.90;;;;;;5076632;28;20425;-66
2021/07/13 09:13:54;;;;;;;84.13;46.47;;;21.00;99.90;;;;;;5073226;28;20187;-66
2021/07/13 09:16:25;;;;;;;79.43;43.70;;;21.10;99.90;;;;;;5076770;28;20180;-66
2021/07/13 09:18:55;;;;;;;75.30;42.77;;;21.40;99.90;;;;;;5076887;28;20316;-66
2021/07/13 09:21:25;;;;;;;70.13;41.63;;;21.80;99.90;;;;;;5078631;28;20363;-66
2021/07/13 09:24:16;;;;;;;61.67;39.90;;;22.50;99.90;;;;;;5078927;28;20265;-66
2021/07/13 09:26:48;;;;;;;56.23;36.17;;;23.00;99.90;;;;;;5074128;28;20206;-66
2021/07/13 09:29:36;;;;;;;52.23;34.53;;;23.40;99.90;;;;;;5076989;28;20182;-66
2021/07/13 09:32:32;;;;;;;51.83;35.57;;;23.70;99.90;;;;;;5074042;28;20202;-66
2021/07/13 09:35:03;;;;;;;47.83;33.47;;;24.00;99.90;;;;;;5038508;28;20218;-66
2021/07/13 09:37:33;;;;;;;44.23;32.17;;;24.20;99.90;;;;;;5072054;28;20215;-66
2021/07/13 09:40:06;;;;;;;47.60;33.73;;;24.40;99.90;;;;;;5077373;28;20187;-66
2021/07/13 09:42:38;;;;;;;40.87;30.37;;;24.20;99.90;;;;;;5075893;28;20172;-66
2021/07/13 09:45:33;;;;;;;42.50;30.23;;;24.00;99.90;;;;;;5077989;28;20223;-66
2021/07/13 09:48:10;;;;;;;44.17;32.00;;;24.00;99.90;;;;;;5066060;28;20562;-66
2021/07/13 09:50:40;;;;;;;42.87;31.83;;;23.90;99.90;;;;;;5057895;28;20184;-66
2021/07/13 09:53:11;;;;;;;44.93;32.13;;;23.90;99.90;;;;;;5079565;28;20336;-66
2021/07/13 09:55:40;;;;;;;40.53;29.73;;;23.80;99.90;;;;;;5076506;28;20191;-66
2021/07/13 09:58:18;;;;;;;42.63;30.23;;;23.70;99.90;;;;;;5080150;28;20187;-66
2021/07/13 10:00:49;;;;;;;42.07;28.77;;;23.70;99.90;;;;;;5077948;28;20202;-66
2021/07/13 10:03:19;;;;;;;42.43;31.33;;;23.60;99.90;;;;;;5076238;28;20212;-66
2021/07/13 10:05:51;;;;;;;38.70;27.60;;;23.60;99.90;;;;;;5073778;28;20173;-66
2021/07/13 10:08:21;;;;;;;43.60;31.50;;;23.50;99.90;;;;;;5071536;28;20394;-67
2021/07/13 10:10:50;;;;;;;41.90;29.57;;;23.40;99.90;;;;;;5072169;28;20186;-66
2021/07/13 10:13:20;;;;;;;39.30;28.97;;;23.30;99.90;;;;;;5074873;28;20208;-66
2021/07/13 10:15:50;;;;;;;39.33;27.23;;;23.30;99.90;;;;;;5074972;28;20492;-66
2021/07/13 10:18:22;;;;;;;40.03;28.13;;;23.20;99.90;;;;;;5075712;28;20213;-66
2021/07/13 10:20:53;;;;;;;37.73;27.23;;;23.30;99.90;;;;;;5071609;28;20345;-66
2021/07/13 10:23:21;;;;;;;37.73;26.23;;;23.20;99.90;;;;;;5072784;28;20315;-66
2021/07/13 10:25:53;;;;;;;37.67;28.33;;;23.30;99.90;;;;;;5075981;28;20228;-66
2021/07/13 10:28:32;;;;;;;39.70;28.10;;;23.10;99.90;;;;;;5080972;28;20185;-66
2021/07/13 10:31:01;;;;;;;36.73;26.73;;;23.10;99.90;;;;;;5082091;28;20192;-66
2021/07/13 10:33:36;;;;;;;37.87;27.20;;;23.10;99.90;;;;;;5079328;28;20362;-66
2021/07/13 10:36:30;;;;;;;35.10;26.73;;;23.10;99.90;;;;;;5081501;28;20201;-66
2021/07/13 10:39:27;;;;;;;38.33;27.83;;;23.00;99.90;;;;;;5075021;28;20196;-66
2021/07/13 10:41:56;;;;;;;47.50;33.13;;;23.00;99.90;;;;;;5078536;28;20260;-66
2021/07/13 10:44:43;;;;;;;56.30;36.50;;;22.90;99.90;;;;;;5076137;28;20218;-66
2021/07/13 10:47:25;;;;;;;57.83;36.47;;;22.70;99.90;;;;;;5078689;28;20208;-66
2021/07/13 10:50:36;;;;;;;58.90;37.93;;;22.60;99.90;;;;;;5076467;28;20268;-66
2021/07/13 10:53:06;;;;;;;63.87;38.07;;;22.50;99.90;;;;;;5071123;28;20192;-66
2021/07/13 10:55:52;;;;;;;64.33;38.83;;;22.50;99.90;;;;;;5074620;28;20179;-66
2021/07/13 10:58:23;;;;;;;84.70;43.70;;;22.40;99.90;;;;;;5079203;28;20189;-67
2021/07/13 11:01:31;;;;;;;82.67;45.90;;;22.10;99.90;;;;;;5069107;28;20463;-67
2021/07/13 11:04:04;;;;;;;82.50;45.40;;;21.70;99.90;;;;;;5044982;28;20193;-67
2021/07/13 11:07:05;;;;;;;80.63;45.50;;;21.40;99.90;;;;;;5078915;28;20214;-67
2021/07/13 11:09:38;;;;;;;83.77;45.77;;;21.20;99.90;;;;;;5081439;28;20188;-67
2021/07/13 11:12:19;;;;;;;85.47;45.93;;;21.10;99.90;;;;;;5079394;28;20188;-67
2021/07/13 11:14:49;;;;;;;83.83;44.80;;;21.20;99.90;;;;;;5078702;28;20172;-66
2021/07/13 11:17:25;;;;;;;87.10;48.33;;;21.20;99.90;;;;;;5074171;28;20188;-67
2021/07/13 11:20:00;;;;;;;83.43;46.23;;;21.20;99.90;;;;;;5069892;28;20179;-66
2021/07/13 11:22:29;;;;;;;82.20;45.93;;;21.30;99.90;;;;;;5075674;28;20265;-66
2021/07/13 11:24:57;;;;;;;82.83;45.83;;;21.40;99.90;;;;;;5076694;28;20213;-66
2021/07/13 11:27:25;;;;;;;87.03;48.60;;;21.50;99.90;;;;;;5076775;28;20230;-66
2021/07/13 11:29:54;;;;;;;81.50;45.03;;;21.40;99.90;;;;;;5072341;28;20310;-66
2021/07/13 11:32:24;;;;;;;87.77;46.60;;;21.30;99.90;;;;;;5073360;28;20439;-66
2021/07/13 11:34:52;;;;;;;83.50;46.30;;;21.20;99.90;;;;;;5075832;28;20238;-66
2021/07/13 11:37:24;;;;;;;92.53;47.97;;;21.30;99.90;;;;;;5080017;28;20176;-67
2021/07/13 11:40:07;;;;;;;84.63;45.20;;;21.20;99.90;;;;;;5076273;28;20184;-66
2021/07/13 11:42:35;;;;;;;83.00;45.33;;;21.10;99.90;;;;;;5075329;28;20194;-66
2021/07/13 11:45:07;;;;;;;83.17;44.77;;;21.10;99.90;;;;;;5077549;28;20467;-66
2021/07/13 11:47:37;;;;;;;90.67;46.23;;;21.00;99.90;;;;;;5076170;28;20415;-66
2021/07/13 11:50:11;;;;;;;83.27;44.07;;;20.90;99.90;;;;;;5075861;28;20294;-66
2021/07/13 11:52:40;;;;;;;85.80;45.60;;;21.00;99.90;;;;;;5072855;28;20179;-66
2021/07/13 11:55:09;;;;;;;83.40;43.70;;;21.20;99.90;;;;;;5076478;28;20180;-66
2021/07/13 11:57:37;;;;;;;80.87;44.23;;;21.30;99.90;;;;;;5072776;28;20172;-66
2021/07/13 12:00:06;;;;;;;79.23;44.77;;;21.50;99.90;;;;;;5073787;28;20187;-66
2021/07/13 12:02:37;;;;;;;83.47;45.30;;;21.60;99.90;;;;;;5075896;28;20179;-66
2021/07/13 12:05:07;;;;;;;83.40;44.20;;;21.60;99.90;;;;;;5074726;28;20475;-66
2021/07/13 12:07:35;;;;;;;73.47;42.80;;;21.50;99.90;;;;;;5075623;28;20225;-67
2021/07/13 12:10:06;;;;;;;73.17;41.73;;;21.50;99.90;;;;;;5075359;28;20181;-66
2021/07/13 12:12:38;;;;;;;72.50;42.00;;;21.50;99.90;;;;;;5073042;28;20439;-66
2021/07/13 12:15:08;;;;;;;74.07;39.60;;;21.60;99.90;;;;;;5075416;28;20188;-66
2021/07/13 12:17:39;;;;;;;64.63;39.67;;;21.70;99.90;;;;;;5072415;28;20176;-66
2021/07/13 12:20:11;;;;;;;64.70;37.67;;;21.60;99.90;;;;;;5075165;28;20184;-66
2021/07/13 12:22:39;;;;;;;67.67;37.60;;;21.50;99.90;;;;;;5072263;28;20292;-65
2021/07/13 12:25:09;;;;;;;67.37;39.70;;;21.40;99.90;;;;;;5070308;28;20248;-66
2021/07/13 12:27:37;;;;;;;72.70;40.40;;;21.30;99.90;;;;;;5073718;28;20176;-65
2021/07/13 12:30:14;;;;;;;66.70;38.60;;;21.30;99.90;;;;;;5075270;28;20265;-66
2021/07/13 12:32:44;;;;;;;71.87;40.20;;;21.30;99.90;;;;;;5075932;28;20232;-66
2021/07/13 12:35:15;;;;;;;69.17;38.90;;;21.30;99.90;;;;;;5075421;28;20242;-67
2021/07/13 12:37:46;;;;;;;75.23;39.97;;;21.20;99.90;;;;;;5075029;28;20212;-66
2021/07/13 12:40:15;;;;;;;67.47;38.90;;;21.20;99.90;;;;;;5079959;28;20490;-65
2021/07/13 12:42:46;;;;;;;64.20;38.20;;;21.20;99.90;;;;;;5078620;28;20200;-66